Time;durP1;ratioP1;P1;durP2;ratioP2;P2;SDS_P1;SDS_P2;PMS_P1;PMS_P2;Temp;Humidity;BMP_temperature;BMP_pressure;BME280_temperature;BME280_humidity;BME280_pressure;Samples;Min_cycle;Max_cycle;Signal;HPM_P1;HPM_P2
2022/09/05 00:01:34;;;;;;;2.45;1.77;;;24.70;49.00;;;;;;5053363;28;20024;-84
2022/09/05 00:04:25;;;;;;;3.22;1.80;;;24.60;49.00;;;;;;5038789;28;20041;-88
2022/09/05 00:07:01;;;;;;;2.05;1.75;;;24.60;49.10;;;;;;5041038;28;20037;-87
2022/09/05 00:09:50;;;;;;;2.35;1.80;;;24.60;49.10;;;;;;5036390;28;20049;-87
2022/09/05 00:12:16;;;;;;;3.05;2.03;;;24.60;49.20;;;;;;5041284;28;20037;-87
2022/09/05 00:14:51;;;;;;;4.13;1.85;;;24.60;49.10;;;;;;5013051;28;20095;-86
2022/09/05 00:17:54;;;;;;;2.83;2.00;;;24.50;49.20;;;;;;5047277;28;20033;-87
2022/09/05 00:20:47;;;;;;;2.92;1.90;;;24.50;49.20;;;;;;5028868;28;20037;-86
2022/09/05 00:23:40;;;;;;;3.30;1.90;;;24.50;49.30;;;;;;5043076;28;20029;-87
2022/09/05 00:26:16;;;;;;;2.50;1.95;;;24.40;49.30;;;;;;5036980;28;20466;-87
2022/09/05 00:28:49;;;;;;;2.38;1.85;;;24.40;49.30;;;;;;5036372;28;20478;-87
2022/09/05 00:31:23;;;;;;;2.55;1.70;;;24.40;49.40;;;;;;5037767;28;20048;-86
2022/09/05 00:34:04;;;;;;;2.70;1.90;;;24.40;49.40;;;;;;5037148;28;20029;-87
2022/09/05 00:36:44;;;;;;;2.55;1.88;;;24.30;49.30;;;;;;5036711;28;20034;-87
2022/09/05 00:39:21;;;;;;;2.50;1.75;;;24.30;49.40;;;;;;5036829;28;20057;-85
2022/09/05 00:41:50;;;;;;;2.72;1.80;;;24.20;49.30;;;;;;5036895;28;20046;-85
2022/09/05 00:44:19;;;;;;;2.30;1.85;;;24.20;49.30;;;;;;5037285;28;20450;-86
2022/09/05 00:47:25;;;;;;;2.67;1.90;;;24.30;49.50;;;;;;5036745;28;20455;-87
2022/09/05 00:49:58;;;;;;;2.38;1.80;;;24.20;49.60;;;;;;5037031;28;20038;-87
2022/09/05 00:52:35;;;;;;;2.75;1.88;;;24.20;49.50;;;;;;5036638;28;20060;-87
2022/09/05 00:55:11;;;;;;;3.20;2.10;;;24.10;49.50;;;;;;5036158;28;20064;-87
2022/09/05 00:58:07;;;;;;;2.15;1.90;;;24.10;49.60;;;;;;5036220;28;20394;-87
2022/09/05 01:00:53;;;;;;;2.47;1.88;;;24.10;49.70;;;;;;5037581;28;20418;-86
2022/09/05 01:03:33;;;;;;;2.58;1.67;;;24.10;49.70;;;;;;5036244;28;20079;-88
2022/09/05 01:06:23;;;;;;;2.13;1.77;;;24.00;49.70;;;;;;5037261;28;20030;-87
2022/09/05 01:08:58;;;;;;;2.65;1.77;;;24.00;49.80;;;;;;5036030;28;20034;-86
2022/09/05 01:11:58;;;;;;;2.67;1.83;;;24.00;49.80;;;;;;5036118;28;20033;-86
2022/09/05 01:14:37;;;;;;;2.40;1.85;;;23.90;49.90;;;;;;5036194;28;20033;-86
2022/09/05 01:17:34;;;;;;;3.13;2.00;;;23.90;49.90;;;;;;5035478;28;20036;-85
2022/09/05 01:20:10;;;;;;;2.22;1.70;;;23.90;50.00;;;;;;5036474;28;20025;-88
2022/09/05 01:22:58;;;;;;;2.22;1.70;;;23.90;49.90;;;;;;5036418;28;20504;-86
2022/09/05 01:25:48;;;;;;;2.42;1.90;;;23.80;50.00;;;;;;5036461;28;20041;-87
2022/09/05 01:28:52;;;;;;;2.00;1.77;;;23.80;50.00;;;;;;5034874;28;20029;-87
2022/09/05 01:31:36;;;;;;;2.85;1.88;;;23.80;50.20;;;;;;5035453;28;20034;-87
2022/09/05 01:34:36;;;;;;;2.60;1.88;;;23.70;50.10;;;;;;5033819;28;20045;-82
2022/09/05 01:37:21;;;;;;;2.00;1.70;;;23.70;50.20;;;;;;5016935;28;20039;-81
2022/09/05 01:40:06;;;;;;;1.95;1.52;;;23.70;50.10;;;;;;5033790;28;20053;-82
2022/09/05 01:42:53;;;;;;;2.05;1.67;;;23.60;50.20;;;;;;5034619;28;20116;-82
2022/09/05 01:45:56;;;;;;;2.25;1.90;;;23.60;50.30;;;;;;5033286;28;20033;-81
2022/09/05 01:48:42;;;;;;;2.63;1.85;;;23.60;50.40;;;;;;5033583;28;20030;-82
2022/09/05 01:51:49;;;;;;;2.20;1.83;;;23.60;50.30;;;;;;5033559;28;20033;-82
2022/09/05 01:54:29;;;;;;;2.13;1.70;;;23.50;50.40;;;;;;5016855;28;20032;-82
2022/09/05 01:57:01;;;;;;;2.33;1.70;;;23.50;50.40;;;;;;5033410;28;20087;-82
2022/09/05 01:59:51;;;;;;;3.50;2.10;;;23.50;50.40;;;;;;5033456;28;20051;-83
2022/09/05 02:02:51;;;;;;;2.17;1.65;;;23.50;50.50;;;;;;5033702;28;20029;-82
2022/09/05 02:05:27;;;;;;;2.40;1.80;;;23.40;50.50;;;;;;5033158;28;20474;-83
2022/09/05 02:08:12;;;;;;;2.75;1.90;;;23.40;50.50;;;;;;5032768;28;20091;-82
2022/09/05 02:10:50;;;;;;;2.17;1.75;;;23.30;50.50;;;;;;5034122;28;20025;-83
2022/09/05 02:13:28;;;;;;;2.10;1.70;;;23.30;50.50;;;;;;5033247;28;20029;-82
2022/09/05 02:16:11;;;;;;;2.42;1.90;;;23.30;50.60;;;;;;5034609;28;20033;-83
2022/09/05 02:19:05;;;;;;;2.58;1.75;;;23.30;50.60;;;;;;5033285;28;20021;-81
2022/09/05 02:21:39;;;;;;;2.45;1.77;;;23.20;50.70;;;;;;5033990;28;20025;-83
2022/09/05 02:24:23;;;;;;;2.78;2.08;;;23.30;50.60;;;;;;5032716;28;20029;-81
2022/09/05 02:27:12;;;;;;;2.60;1.98;;;23.20;50.60;;;;;;5033015;28;20076;-83
2022/09/05 02:29:37;;;;;;;2.53;1.90;;;23.20;50.80;;;;;;5033484;28;20087;-83
2022/09/05 02:32:18;;;;;;;3.47;2.05;;;23.20;50.70;;;;;;5032246;28;20025;-83
2022/09/05 02:34:54;;;;;;;2.85;2.10;;;23.20;50.90;;;;;;5033418;28;20434;-82
2022/09/05 02:37:35;;;;;;;2.63;1.80;;;23.10;50.80;;;;;;5034112;28;20037;-82
2022/09/05 02:40:09;;;;;;;2.58;1.80;;;23.10;50.90;;;;;;5033718;28;20091;-81
2022/09/05 02:43:07;;;;;;;2.30;1.85;;;23.10;50.90;;;;;;5033213;28;20061;-82
2022/09/05 02:45:40;;;;;;;3.65;1.92;;;23.00;50.90;;;;;;5032708;28;20470;-81
2022/09/05 02:48:21;;;;;;;2.65;1.95;;;23.10;50.90;;;;;;5032652;28;20040;-82
2022/09/05 02:51:02;;;;;;;2.20;1.98;;;23.00;50.90;;;;;;5033170;28;20029;-82
2022/09/05 02:53:29;;;;;;;2.60;2.05;;;23.00;50.90;;;;;;5016195;28;20029;-82
2022/09/05 02:55:58;;;;;;;2.67;2.08;;;23.00;51.00;;;;;;5016548;28;20029;-82
2022/09/05 02:58:41;;;;;;;2.92;2.13;;;22.90;51.00;;;;;;5032211;28;20057;-82
2022/09/05 03:01:13;;;;;;;2.90;2.28;;;22.90;51.10;;;;;;5032626;28;20439;-83
2022/09/05 03:03:50;;;;;;;2.38;1.92;;;22.90;51.10;;;;;;5032274;28;20025;-80
2022/09/05 03:06:32;;;;;;;2.67;2.00;;;22.90;51.20;;;;;;5032227;28;20079;-83
2022/09/05 03:09:19;;;;;;;2.13;1.83;;;22.90;51.30;;;;;;5032460;28;20025;-83
2022/09/05 03:12:03;;;;;;;2.53;1.98;;;22.90;51.30;;;;;;5032727;28;20029;-83
2022/09/05 03:14:58;;;;;;;3.35;2.17;;;22.80;51.30;;;;;;5031964;28;20022;-82
2022/09/05 03:18:01;;;;;;;2.90;2.30;;;22.80;51.40;;;;;;5033495;28;20048;-83
2022/09/05 03:20:43;;;;;;;3.78;2.33;;;22.80;51.40;;;;;;5032399;28;20030;-82
2022/09/05 03:23:59;;;;;;;2.88;1.88;;;22.80;51.40;;;;;;5031793;28;20025;-83
2022/09/05 03:26:46;;;;;;;2.53;1.98;;;22.70;51.40;;;;;;5030703;28;20088;-82
2022/09/05 03:29:52;;;;;;;2.83;2.08;;;22.70;51.40;;;;;;5030928;28;20037;-82
2022/09/05 03:32:47;;;;;;;3.03;2.40;;;22.70;51.50;;;;;;5045938;28;20044;-83
2022/09/05 03:35:25;;;;;;;2.38;2.03;;;22.70;51.60;;;;;;5032103;28;20029;-82
2022/09/05 03:38:30;;;;;;;2.65;2.10;;;22.60;51.50;;;;;;5032241;28;20037;-82
2022/09/05 03:41:14;;;;;;;3.20;2.17;;;22.60;51.70;;;;;;5031673;28;20041;-82
2022/09/05 03:44:18;;;;;;;3.53;2.30;;;22.60;51.50;;;;;;5032248;28;20033;-82
2022/09/05 03:46:52;;;;;;;3.13;2.20;;;22.60;51.70;;;;;;5031809;28;20042;-82
2022/09/05 03:49:33;;;;;;;2.80;2.28;;;22.50;51.60;;;;;;5031801;28;20125;-84
2022/09/05 03:52:27;;;;;;;3.33;2.25;;;22.50;51.70;;;;;;5032129;28;20029;-83
2022/09/05 03:55:05;;;;;;;3.42;2.15;;;22.50;51.80;;;;;;5035543;28;20033;-84
2022/09/05 03:58:09;;;;;;;2.58;2.00;;;22.50;51.70;;;;;;5035821;28;20129;-82
2022/09/05 04:00:36;;;;;;;2.70;2.17;;;22.50;51.90;;;;;;5035963;28;20104;-82
2022/09/05 04:03:29;;;;;;;2.90;2.22;;;22.50;51.80;;;;;;5019083;28;20044;-84
2022/09/05 04:06:17;;;;;;;3.20;2.45;;;22.40;51.90;;;;;;5019092;28;20163;-84
2022/09/05 04:09:10;;;;;;;3.13;2.30;;;22.40;51.90;;;;;;5035907;28;20114;-82
2022/09/05 04:11:43;;;;;;;2.65;2.05;;;22.40;51.90;;;;;;5035087;28;20037;-82
2022/09/05 04:14:23;;;;;;;3.97;2.45;;;22.40;51.90;;;;;;5035866;28;20029;-82
2022/09/05 04:17:02;;;;;;;3.40;2.40;;;22.40;52.00;;;;;;5036340;28;20443;-82
2022/09/05 04:19:27;;;;;;;3.38;2.53;;;22.30;51.90;;;;;;5036325;28;20025;-83
2022/09/05 04:22:21;;;;;;;3.60;2.42;;;22.30;51.90;;;;;;5036362;28;20025;-82
2022/09/05 04:25:05;;;;;;;3.67;2.58;;;22.30;52.00;;;;;;5018847;28;20057;-84
2022/09/05 04:27:51;;;;;;;3.40;2.60;;;22.30;52.10;;;;;;5035383;28;20041;-83
2022/09/05 04:30:57;;;;;;;2.80;2.10;;;22.30;52.10;;;;;;5035350;28;20489;-82
2022/09/05 04:33:31;;;;;;;2.65;2.42;;;22.30;52.20;;;;;;5036687;28;20489;-82
2022/09/05 04:36:22;;;;;;;3.42;2.45;;;22.30;52.20;;;;;;5035122;28;20458;-83
2022/09/05 04:39:07;;;;;;;3.30;2.42;;;22.20;52.10;;;;;;5034606;28;20029;-82
2022/09/05 04:41:41;;;;;;;3.22;2.53;;;22.20;52.20;;;;;;5034313;28;20061;-84
2022/09/05 04:44:15;;;;;;;3.03;2.40;;;22.20;52.20;;;;;;5035736;28;20021;-84
2022/09/05 04:46:51;;;;;;;3.33;2.63;;;22.20;52.20;;;;;;5035366;28;20045;-82
2022/09/05 04:49:26;;;;;;;3.30;2.67;;;22.10;52.10;;;;;;5035209;28;20038;-81
2022/09/05 04:51:52;;;;;;;3.30;2.53;;;22.10;52.20;;;;;;5018337;28;20029;-82
2022/09/05 04:54:25;;;;;;;3.03;2.40;;;22.20;52.30;;;;;;5018744;28;20021;-83
2022/09/05 04:56:59;;;;;;;3.42;2.60;;;22.10;52.30;;;;;;5035875;28;20037;-83
2022/09/05 04:59:30;;;;;;;3.80;2.70;;;22.10;52.30;;;;;;5034879;28;20030;-83
2022/09/05 05:02:15;;;;;;;3.15;2.60;;;22.10;52.30;;;;;;5018206;28;20462;-82
2022/09/05 05:04:41;;;;;;;3.40;2.80;;;22.10;52.40;;;;;;5033234;28;20129;-81
2022/09/05 05:07:29;;;;;;;3.92;2.80;;;22.10;52.30;;;;;;5034735;28;20034;-84
2022/09/05 05:10:00;;;;;;;3.72;2.88;;;22.00;52.50;;;;;;5035270;28;20032;-83
2022/09/05 05:12:57;;;;;;;4.32;3.03;;;22.00;52.40;;;;;;5034219;28;20030;-82
2022/09/05 05:15:26;;;;;;;3.65;2.83;;;22.00;52.50;;;;;;5017626;28;20045;-82
2022/09/05 05:18:11;;;;;;;4.55;2.88;;;22.00;52.40;;;;;;5018154;28;20025;-82
2022/09/05 05:20:58;;;;;;;3.72;2.72;;;22.00;52.60;;;;;;5035771;28;20037;-82
2022/09/05 05:23:40;;;;;;;4.15;3.00;;;21.90;52.60;;;;;;5034280;28;20053;-81
2022/09/05 05:26:19;;;;;;;3.95;2.88;;;21.90;52.60;;;;;;5034036;28;20381;-83
2022/09/05 05:29:34;;;;;;;3.30;2.63;;;21.90;52.60;;;;;;5033987;28;20453;-80
2022/09/05 05:32:02;;;;;;;3.87;3.07;;;21.90;52.80;;;;;;5016117;28;20034;-82
2022/09/05 05:34:31;;;;;;;4.05;2.80;;;21.80;52.50;;;;;;5016683;28;20338;-80
2022/09/05 05:37:13;;;;;;;4.43;3.40;;;21.80;52.60;;;;;;5024719;28;20042;-81
2022/09/05 05:39:45;;;;;;;4.55;3.17;;;21.80;52.80;;;;;;5033901;28;20127;-82
2022/09/05 05:42:24;;;;;;;3.70;2.95;;;21.80;52.70;;;;;;5034854;28;20033;-82
2022/09/05 05:44:57;;;;;;;3.40;2.80;;;21.80;52.80;;;;;;5033671;28;20120;-82
2022/09/05 05:47:30;;;;;;;3.40;2.72;;;21.80;52.80;;;;;;5033301;28;20120;-87
2022/09/05 05:49:59;;;;;;;3.88;2.75;;;21.80;52.80;;;;;;5034724;28;20029;-82
2022/09/05 05:52:41;;;;;;;3.88;2.75;;;21.80;52.90;;;;;;5017172;28;20056;-83
2022/09/05 05:55:28;;;;;;;3.75;2.65;;;21.80;52.90;;;;;;5034834;28;20026;-82
2022/09/05 05:58:11;;;;;;;3.55;2.70;;;21.70;53.00;;;;;;5033454;28;20022;-82
2022/09/05 06:01:19;;;;;;;3.85;2.58;;;21.70;53.00;;;;;;5033178;28;20043;-82
2022/09/05 06:04:09;;;;;;;3.80;2.90;;;21.70;53.00;;;;;;5033902;28;20492;-83
2022/09/05 06:06:57;;;;;;;3.22;2.53;;;21.70;53.00;;;;;;5033832;28;20427;-84
2022/09/05 06:09:47;;;;;;;4.03;2.60;;;21.70;53.10;;;;;;5016641;28;20033;-83
2022/09/05 06:12:31;;;;;;;3.17;2.72;;;21.70;53.10;;;;;;5017032;28;20025;-83
2022/09/05 06:15:40;;;;;;;3.25;2.67;;;21.70;53.10;;;;;;5032934;28;20036;-83
2022/09/05 06:18:21;;;;;;;3.92;2.70;;;21.60;53.10;;;;;;5010979;28;20038;-83
2022/09/05 06:21:06;;;;;;;3.05;2.47;;;21.70;53.00;;;;;;5017473;28;20029;-84
2022/09/05 06:23:58;;;;;;;3.97;2.63;;;21.70;53.00;;;;;;5033107;28;20040;-85
2022/09/05 06:26:50;;;;;;;3.08;2.30;;;21.60;53.10;;;;;;5033510;28;20033;-82
2022/09/05 06:29:38;;;;;;;3.85;2.88;;;21.60;53.00;;;;;;5033780;28;20025;-81
2022/09/05 06:32:36;;;;;;;3.33;2.50;;;21.60;53.10;;;;;;5033026;28;20033;-85
2022/09/05 06:35:23;;;;;;;3.85;2.50;;;21.60;53.20;;;;;;5034620;28;20091;-83
2022/09/05 06:38:01;;;;;;;3.50;2.55;;;21.60;53.20;;;;;;5033871;28;20076;-83
2022/09/05 06:40:37;;;;;;;3.10;2.53;;;21.60;53.20;;;;;;5032616;28;20053;-83
2022/09/05 06:43:47;;;;;;;2.90;2.35;;;21.60;53.20;;;;;;5034358;28;20025;-83
2022/09/05 06:46:33;;;;;;;3.30;2.53;;;21.60;53.40;;;;;;5033181;28;20402;-83
2022/09/05 06:49:19;;;;;;;3.20;2.50;;;21.60;53.30;;;;;;5016062;28;20029;-84
2022/09/05 06:52:24;;;;;;;3.97;3.05;;;21.70;53.40;;;;;;5016026;28;20025;-82
2022/09/05 06:54:55;;;;;;;3.38;2.60;;;21.70;53.50;;;;;;5033144;28;20065;-82
2022/09/05 06:57:52;;;;;;;3.80;2.75;;;21.70;54.00;;;;;;5032557;28;20057;-82
2022/09/05 07:00:43;;;;;;;3.95;2.67;;;21.70;53.50;;;;;;5032662;28;20065;-83
2022/09/05 07:03:44;;;;;;;3.22;2.42;;;21.70;53.50;;;;;;5032490;28;20025;-84
2022/09/05 07:06:15;;;;;;;3.20;2.67;;;21.70;53.50;;;;;;5032278;28;20482;-84
2022/09/05 07:08:43;;;;;;;4.18;2.60;;;21.70;53.40;;;;;;5015944;28;20025;-82
2022/09/05 07:11:43;;;;;;;3.17;2.60;;;21.70;53.50;;;;;;5015953;28;20382;-82
2022/09/05 07:14:12;;;;;;;3.22;2.50;;;21.70;53.70;;;;;;5015436;28;20037;-84
2022/09/05 07:16:51;;;;;;;3.65;2.75;;;21.70;53.50;;;;;;5032601;28;20454;-85
2022/09/05 07:19:26;;;;;;;3.20;2.60;;;21.70;53.70;;;;;;5032570;28;20034;-84
2022/09/05 07:22:13;;;;;;;3.83;2.85;;;21.80;53.60;;;;;;5033366;28;20092;-85
2022/09/05 07:24:45;;;;;;;3.42;2.60;;;21.80;53.70;;;;;;5032490;28;20035;-84
2022/09/05 07:27:23;;;;;;;3.55;2.78;;;21.80;53.60;;;;;;5032542;28;20033;-85
2022/09/05 07:29:53;;;;;;;3.60;2.60;;;21.80;53.60;;;;;;5022588;28;20410;-84
2022/09/05 07:32:19;;;;;;;3.47;2.78;;;21.80;53.70;;;;;;5037993;28;20028;-85
2022/09/05 07:34:47;;;;;;;4.18;3.00;;;21.90;53.80;;;;;;5020993;28;20362;-85
2022/09/05 07:37:40;;;;;;;4.43;3.10;;;21.90;53.90;;;;;;5036781;28;20043;-84
2022/09/05 07:40:15;;;;;;;4.00;3.10;;;21.90;54.00;;;;;;5036543;28;20046;-85
2022/09/05 07:42:57;;;;;;;3.60;2.90;;;21.90;54.00;;;;;;5036615;28;20026;-85
2022/09/05 07:45:27;;;;;;;3.50;2.70;;;21.90;54.00;;;;;;5036556;28;20418;-84
2022/09/05 07:47:58;;;;;;;4.88;3.05;;;22.00;54.00;;;;;;5036484;28;20083;-85
2022/09/05 07:50:26;;;;;;;3.83;2.85;;;22.00;54.60;;;;;;5036441;28;20497;-85
2022/09/05 07:52:56;;;;;;;5.55;3.30;;;22.00;53.90;;;;;;5020058;28;20068;-84
2022/09/05 07:55:24;;;;;;;3.10;2.53;;;22.10;54.00;;;;;;5036495;28;20033;-85
2022/09/05 07:57:53;;;;;;;4.13;2.85;;;22.10;54.00;;;;;;5019808;28;20025;-85
2022/09/05 08:00:25;;;;;;;4.25;3.13;;;22.10;54.00;;;;;;5036422;28;20458;-85
2022/09/05 08:02:50;;;;;;;4.38;3.00;;;22.20;54.10;;;;;;5020084;28;20044;-84
2022/09/05 08:05:22;;;;;;;3.97;3.10;;;22.20;54.00;;;;;;5019622;28;20030;-85
2022/09/05 08:07:58;;;;;;;4.03;2.92;;;22.20;54.00;;;;;;5035989;28;20466;-85
2022/09/05 08:10:30;;;;;;;4.43;2.78;;;22.20;54.10;;;;;;5019386;28;20069;-85
2022/09/05 08:13:12;;;;;;;3.97;3.10;;;22.20;54.10;;;;;;5036134;28;20025;-85
2022/09/05 08:15:44;;;;;;;3.50;2.47;;;22.30;54.20;;;;;;5019552;28;20029;-85
2022/09/05 08:18:44;;;;;;;4.40;3.28;;;22.30;54.20;;;;;;5036044;28;20029;-85
2022/09/05 08:21:27;;;;;;;4.15;3.15;;;22.30;54.30;;;;;;5049155;28;20479;-85
2022/09/05 08:24:08;;;;;;;4.30;3.03;;;22.40;54.30;;;;;;5036953;28;20033;-85
2022/09/05 08:27:02;;;;;;;3.67;2.95;;;22.40;54.40;;;;;;5035772;28;20044;-85
2022/09/05 08:29:36;;;;;;;3.55;2.65;;;22.40;54.50;;;;;;5035425;28;20057;-83
2022/09/05 08:32:09;;;;;;;5.15;3.08;;;22.50;54.50;;;;;;5035492;28;20033;-85
2022/09/05 08:34:50;;;;;;;4.35;2.83;;;22.50;54.50;;;;;;5019582;28;20370;-85
2022/09/05 08:37:26;;;;;;;3.88;2.63;;;22.50;54.50;;;;;;5035713;28;20078;-85
2022/09/05 08:39:56;;;;;;;4.32;2.45;;;22.50;54.50;;;;;;5019293;28;20466;-85
2022/09/05 08:42:59;;;;;;;4.70;2.78;;;22.60;54.30;;;;;;5035502;28;20041;-85
2022/09/05 08:45:44;;;;;;;3.13;2.38;;;22.70;54.30;;;;;;5035179;28;20445;-82
2022/09/05 08:48:31;;;;;;;3.72;2.70;;;22.70;54.10;;;;;;5035072;28;20076;-84
2022/09/05 08:51:12;;;;;;;3.30;2.45;;;22.80;54.10;;;;;;5034948;28;20477;-83
2022/09/05 08:54:18;;;;;;;3.25;2.30;;;22.80;54.10;;;;;;5035291;28;20072;-84
2022/09/05 08:57:00;;;;;;;4.43;2.40;;;22.90;54.30;;;;;;5034485;28;20025;-83
2022/09/05 08:59:32;;;;;;;3.53;2.53;;;23.00;54.30;;;;;;5034947;28;20033;-83
2022/09/05 09:02:19;;;;;;;4.78;2.40;;;23.00;54.30;;;;;;5035134;28;20422;-85
2022/09/05 09:05:01;;;;;;;2.90;2.20;;;23.20;54.50;;;;;;5034390;28;20040;-84
2022/09/05 09:07:35;;;;;;;3.35;2.20;;;23.20;54.50;;;;;;5033898;28;20037;-84
2022/09/05 09:10:34;;;;;;;2.25;1.90;;;23.30;54.50;;;;;;5035247;28;20040;-84
2022/09/05 09:13:11;;;;;;;2.00;1.77;;;23.40;54.50;;;;;;5035095;28;20038;-83
2022/09/05 09:16:05;;;;;;;2.42;1.88;;;23.50;54.40;;;;;;5033824;28;20039;-85
2022/09/05 09:19:00;;;;;;;2.25;1.90;;;23.60;54.60;;;;;;5025104;28;20041;-83
2022/09/05 09:21:52;;;;;;;2.42;1.77;;;23.70;54.50;;;;;;5033712;28;20104;-83
2022/09/05 09:24:52;;;;;;;2.58;1.70;;;23.80;54.30;;;;;;5020587;28;20049;-83
2022/09/05 09:27:35;;;;;;;3.05;1.75;;;23.90;54.30;;;;;;5034215;28;20041;-84
2022/09/05 09:30:04;;;;;;;3.47;1.65;;;24.00;54.30;;;;;;5017599;28;20080;-84
2022/09/05 09:32:46;;;;;;;2.60;1.75;;;24.20;54.20;;;;;;5018043;28;20108;-81
2022/09/05 09:35:31;;;;;;;2.33;1.70;;;24.20;54.30;;;;;;5034466;28;20525;-83
2022/09/05 09:38:18;;;;;;;2.22;1.73;;;24.40;54.20;;;;;;5018381;28;20482;-83
2022/09/05 09:41:03;;;;;;;2.40;1.80;;;24.40;54.20;;;;;;5017258;28;20050;-85
2022/09/05 09:43:38;;;;;;;2.38;1.60;;;24.60;54.10;;;;;;5017515;28;20033;-83
2022/09/05 09:46:37;;;;;;;1.83;1.48;;;24.70;54.00;;;;;;5034963;28;20030;-86
2022/09/05 09:49:33;;;;;;;1.70;1.60;;;24.80;54.10;;;;;;5017320;28;20124;-82
2022/09/05 09:52:11;;;;;;;1.48;1.38;;;24.90;53.90;;;;;;5033007;28;20029;-85
2022/09/05 09:55:10;;;;;;;2.00;1.60;;;25.10;53.80;;;;;;5034553;28;20030;-86
2022/09/05 09:57:52;;;;;;;1.75;1.48;;;25.20;53.80;;;;;;5034001;28;20111;-85
2022/09/05 10:00:21;;;;;;;2.22;1.50;;;25.30;53.60;;;;;;5034892;28;20111;-85
2022/09/05 10:03:13;;;;;;;2.15;1.55;;;25.40;53.50;;;;;;5033681;28;20021;-85
2022/09/05 10:06:00;;;;;;;1.40;1.30;;;25.50;53.60;;;;;;5035153;28;20041;-87
2022/09/05 10:08:41;;;;;;;2.03;1.50;;;25.60;53.40;;;;;;5034219;28;20029;-88
2022/09/05 10:11:48;;;;;;;1.77;1.48;;;25.70;53.30;;;;;;5034361;28;20478;-87
2022/09/05 10:14:45;;;;;;;1.48;1.30;;;25.90;53.60;;;;;;5034058;28;20099;-86
2022/09/05 10:17:25;;;;;;;1.38;1.27;;;26.00;53.60;;;;;;5034185;28;20040;-86
2022/09/05 10:20:18;;;;;;;1.40;1.30;;;26.10;53.60;;;;;;5034253;28;20033;-85
2022/09/05 10:22:56;;;;;;;2.47;1.33;;;26.30;54.00;;;;;;5034465;28;20029;-87
2022/09/05 10:26:04;;;;;;;1.75;1.40;;;26.40;54.00;;;;;;5034942;28;20025;-86
2022/09/05 10:28:58;;;;;;;1.52;1.20;;;26.50;54.10;;;;;;5017364;28;20025;-86
2022/09/05 10:32:09;;;;;;;1.20;1.10;;;26.60;54.10;;;;;;5033145;28;20041;-85
2022/09/05 10:35:19;;;;;;;1.52;1.20;;;26.80;54.20;;;;;;5016457;28;20060;-86
2022/09/05 10:37:50;;;;;;;1.10;1.00;;;26.90;54.20;;;;;;5034508;28;20034;-86
2022/09/05 10:40:20;;;;;;;1.35;1.25;;;27.10;54.00;;;;;;5016865;28;20099;-85
2022/09/05 10:43:01;;;;;;;0.98;0.95;;;27.20;54.10;;;;;;5034163;28;20036;-86
2022/09/05 10:45:38;;;;;;;2.13;1.05;;;27.30;54.30;;;;;;5017131;28;20026;-85
2022/09/05 10:48:36;;;;;;;1.30;1.20;;;27.40;54.20;;;;;;5033839;28;20087;-86
2022/09/05 10:51:29;;;;;;;1.45;1.13;;;27.50;54.50;;;;;;5034032;28;20056;-85
2022/09/05 10:54:26;;;;;;;1.70;1.27;;;27.60;54.30;;;;;;5014128;28;20037;-85
2022/09/05 10:57:13;;;;;;;1.08;0.98;;;27.80;54.50;;;;;;5017900;28;20045;-86
2022/09/05 10:59:52;;;;;;;1.20;1.10;;;27.90;54.40;;;;;;5033828;28;20388;-85
2022/09/05 11:02:25;;;;;;;1.13;1.02;;;28.00;54.20;;;;;;5017131;28;20493;-86
2022/09/05 11:05:17;;;;;;;1.30;1.20;;;28.10;54.30;;;;;;5034219;28;20084;-86
2022/09/05 11:08:04;;;;;;;1.35;1.10;;;28.20;54.60;;;;;;5047653;28;20557;-83
2022/09/05 11:10:35;;;;;;;1.20;1.10;;;28.30;54.50;;;;;;5033347;28;20060;-88
2022/09/05 11:13:38;;;;;;;1.20;1.00;;;28.40;54.50;;;;;;5032984;28;20052;-86
2022/09/05 11:16:31;;;;;;;1.05;0.95;;;28.50;54.60;;;;;;5034294;28;20033;-86
2022/09/05 11:19:12;;;;;;;0.95;0.95;;;28.60;54.40;;;;;;5034466;28;20048;-87
2022/09/05 11:21:50;;;;;;;1.20;1.10;;;28.60;54.30;;;;;;5033510;28;20033;-84
2022/09/05 11:24:40;;;;;;;1.73;1.10;;;28.70;54.50;;;;;;5033373;28;20035;-85
2022/09/05 11:27:35;;;;;;;1.17;1.00;;;28.80;54.50;;;;;;5033867;28;20040;-85
2022/09/05 11:30:05;;;;;;;1.00;1.00;;;28.80;54.40;;;;;;5032569;28;20030;-86
2022/09/05 11:32:53;;;;;;;1.13;1.02;;;28.90;54.20;;;;;;5016437;28;20130;-84
2022/09/05 11:35:47;;;;;;;1.52;1.05;;;28.90;54.10;;;;;;5032878;28;20026;-85
2022/09/05 11:38:58;;;;;;;1.17;1.00;;;28.90;54.00;;;;;;5030099;28;20134;-84
2022/09/05 11:41:59;;;;;;;1.10;1.00;;;29.00;53.90;;;;;;5032998;28;20045;-85
2022/09/05 11:44:52;;;;;;;1.10;1.00;;;29.10;53.90;;;;;;5017128;28;20440;-85
2022/09/05 11:47:48;;;;;;;1.15;0.90;;;29.10;53.70;;;;;;5033141;28;20038;-87
2022/09/05 11:50:54;;;;;;;1.13;1.02;;;29.10;53.80;;;;;;5033597;28;20108;-88
2022/09/05 11:53:54;;;;;;;0.82;0.82;;;29.20;53.90;;;;;;5033004;28;20025;-87
2022/09/05 11:56:57;;;;;;;1.30;1.02;;;29.20;53.90;;;;;;5032844;28;20095;-87
2022/09/05 12:00:24;;;;;;;1.17;1.00;;;29.20;53.90;;;;;;5032563;28;20057;-86
2022/09/05 12:03:04;;;;;;;0.90;0.90;;;29.30;54.00;;;;;;4983633;28;20466;-86
2022/09/05 12:06:05;;;;;;;1.33;1.00;;;29.40;53.80;;;;;;5032480;28;20022;-86
2022/09/05 12:08:45;;;;;;;1.05;0.95;;;29.30;53.80;;;;;;5032879;28;20026;-88
2022/09/05 12:11:33;;;;;;;1.27;1.10;;;29.40;53.60;;;;;;5032930;28;20029;-87
2022/09/05 12:14:22;;;;;;;1.08;0.90;;;29.40;53.60;;;;;;5034466;28;20029;-87
2022/09/05 12:17:03;;;;;;;1.63;1.10;;;29.50;53.50;;;;;;5036691;28;20098;-87
2022/09/05 12:19:38;;;;;;;0.80;0.80;;;29.40;53.30;;;;;;5035991;28;20030;-87
2022/09/05 12:22:12;;;;;;;1.20;1.00;;;29.50;52.80;;;;;;5035515;28;20104;-83
2022/09/05 12:24:54;;;;;;;1.08;0.90;;;29.50;52.50;;;;;;5019529;28;20523;-86
2022/09/05 12:27:23;;;;;;;1.20;0.90;;;29.50;52.40;;;;;;5035960;28;20041;-83
2022/09/05 12:29:55;;;;;;;0.93;0.80;;;29.60;52.40;;;;;;5035156;28;20030;-81
2022/09/05 12:32:24;;;;;;;0.80;0.80;;;29.60;52.40;;;;;;5018702;28;20481;-83
2022/09/05 12:34:52;;;;;;;1.05;1.00;;;29.60;52.30;;;;;;5019838;28;20042;-83
2022/09/05 12:37:32;;;;;;;1.10;0.95;;;29.60;52.30;;;;;;5034876;28;20034;-81
2022/09/05 12:40:23;;;;;;;1.13;1.00;;;29.60;52.20;;;;;;5034898;28;20084;-82
2022/09/05 12:43:00;;;;;;;1.33;0.93;;;29.70;52.20;;;;;;5035373;28;20439;-82
2022/09/05 12:45:25;;;;;;;0.90;0.80;;;29.70;52.10;;;;;;5034846;28;20048;-82
2022/09/05 12:47:51;;;;;;;0.88;0.88;;;29.70;51.90;;;;;;5018088;28;20492;-82
2022/09/05 12:50:18;;;;;;;1.17;0.82;;;29.70;51.80;;;;;;5034506;28;20040;-82
2022/09/05 12:52:49;;;;;;;1.08;0.90;;;29.80;51.60;;;;;;5017897;28;20132;-81
2022/09/05 12:55:26;;;;;;;0.80;0.80;;;29.70;51.20;;;;;;5018307;28;20064;-82
2022/09/05 12:58:00;;;;;;;0.80;0.80;;;29.80;51.00;;;;;;5018168;28;20045;-84
2022/09/05 13:00:27;;;;;;;0.80;0.80;;;29.80;50.90;;;;;;5018220;28;20120;-83
2022/09/05 13:03:02;;;;;;;0.82;0.82;;;29.80;50.80;;;;;;5034197;28;20086;-83
2022/09/05 13:05:44;;;;;;;1.45;0.80;;;29.80;50.80;;;;;;5035339;28;20029;-84
2022/09/05 13:08:14;;;;;;;0.75;0.75;;;29.80;50.70;;;;;;5034406;28;20084;-83
2022/09/05 13:10:41;;;;;;;1.65;0.95;;;29.80;50.50;;;;;;5001939;28;20083;-83
2022/09/05 13:13:12;;;;;;;0.77;0.77;;;29.90;50.40;;;;;;5017710;28;20029;-82
2022/09/05 13:15:47;;;;;;;0.98;0.90;;;29.90;50.30;;;;;;5033805;28;20037;-84
2022/09/05 13:18:23;;;;;;;0.75;0.75;;;29.90;50.10;;;;;;5034270;28;20063;-82
2022/09/05 13:21:04;;;;;;;0.88;0.88;;;29.90;49.90;;;;;;5034975;28;20030;-83
2022/09/05 13:24:00;;;;;;;0.90;0.90;;;29.90;49.70;;;;;;5034116;28;20030;-84
2022/09/05 13:26:32;;;;;;;0.85;0.85;;;29.90;49.50;;;;;;5032294;28;20060;-82
2022/09/05 13:29:17;;;;;;;0.82;0.82;;;29.90;49.40;;;;;;5035222;28;20026;-83
2022/09/05 13:31:44;;;;;;;1.13;0.85;;;29.90;49.30;;;;;;5034010;28;20036;-83
2022/09/05 13:34:17;;;;;;;0.70;0.70;;;30.00;49.40;;;;;;5018162;28;20354;-84
2022/09/05 13:37:10;;;;;;;1.15;0.90;;;30.00;49.30;;;;;;5033690;28;20034;-84
2022/09/05 13:40:01;;;;;;;0.85;0.80;;;30.00;49.30;;;;;;5017062;28;20030;-85
2022/09/05 13:42:32;;;;;;;1.30;0.93;;;30.00;49.10;;;;;;5017509;28;20084;-82
2022/09/05 13:45:00;;;;;;;0.80;0.80;;;30.00;49.20;;;;;;5033459;28;20462;-82
2022/09/05 13:47:56;;;;;;;0.90;0.90;;;30.00;49.10;;;;;;5034552;28;20535;-82
2022/09/05 13:50:22;;;;;;;1.80;1.00;;;30.00;49.20;;;;;;5017715;28;20488;-83
2022/09/05 13:52:57;;;;;;;0.70;0.70;;;30.10;49.20;;;;;;5001332;28;20058;-86
2022/09/05 13:55:52;;;;;;;1.17;1.00;;;30.10;49.20;;;;;;5034758;28;20025;-86
2022/09/05 13:58:22;;;;;;;0.88;0.88;;;30.10;48.80;;;;;;5018222;28;20104;-86
2022/09/05 14:01:04;;;;;;;1.30;1.02;;;30.10;48.40;;;;;;5034233;28;20122;-84
2022/09/05 14:03:46;;;;;;;1.25;1.10;;;30.10;47.90;;;;;;5034468;28;20429;-86
2022/09/05 14:06:50;;;;;;;0.95;0.90;;;30.10;48.00;;;;;;5017838;28;20132;-86
2022/09/05 14:09:32;;;;;;;0.73;0.73;;;30.10;47.40;;;;;;5033585;28;20501;-85
2022/09/05 14:12:12;;;;;;;0.95;0.80;;;30.10;47.80;;;;;;5033733;28;20088;-85